Terminal Aerodrome Forecast
Issued by NWS

Home | Current Version | Previous Version | Text Only | Print | Product List | Glossary On
Versions: 1 2 3 4 5 6 7 8 9 10 11 12 13 14 15 16 17 18
463
FTUS41 KPBZ 280522
TAFHLG
TAF
KHLG 280522Z 2806/2906 24003KT P6SM SCT020
      TEMPO 2808/2810 BKN012
     FM281000 VRB03KT 5SM BR OVC010
     FM281500 06004KT P6SM -SHRA OVC015
     FM282100 02005KT P6SM SHRA BKN025
     FM290300 04009KT 3SM SHRA BR OVC015
     FM290500 04009KT 3SM SHRA BR BKN008=

USA.gov is the U.S. government's official web portal to all federal, state and local government web resources and services.